Time;durP1;ratioP1;P1;durP2;ratioP2;P2;SDS_P1;SDS_P2;PMS_P1;PMS_P2;Temp;Humidity;BMP_temperature;BMP_pressure;BME280_temperature;BME280_humidity;BME280_pressure;Samples;Min_cycle;Max_cycle;Signal;HPM_P1;HPM_P2
2022/05/01 00:00:11;;;;;;;4.00;2.80;;;;;;;9.03;70.39;102420.59;5034227;28;20029;-76
2022/05/01 00:02:36;;;;;;;5.85;3.50;;;;;;;8.96;70.41;102411.84;5032929;28;20030;-76
2022/05/01 00:05:02;;;;;;;9.70;5.27;;;;;;;8.82;72.87;102409.03;5034117;28;20116;-76
2022/05/01 00:07:27;;;;;;;11.17;6.33;;;;;;;8.70;72.16;102407.06;5034166;28;20025;-77
2022/05/01 00:09:53;;;;;;;9.10;5.30;;;;;;;8.68;72.33;102411.34;5032921;28;20026;-76
2022/05/01 00:12:18;;;;;;;10.07;5.70;;;;;;;8.63;72.02;102406.09;5033415;28;20112;-76
2022/05/01 00:14:43;;;;;;;8.60;5.30;;;;;;;8.62;72.71;102416.44;5033690;28;20359;-76
2022/05/01 00:17:08;;;;;;;7.75;4.43;;;;;;;8.62;71.24;102406.94;5032739;28;20381;-76
2022/05/01 00:19:34;;;;;;;6.27;3.87;;;;;;;8.64;70.34;102410.44;5033160;28;20032;-76
2022/05/01 00:21:59;;;;;;;5.37;3.70;;;;;;;8.69;70.50;102413.09;5033339;28;20470;-76
2022/05/01 00:24:26;;;;;;;5.07;3.40;;;;;;;8.73;70.46;102409.72;5033069;28;20027;-76
2022/05/01 00:26:51;;;;;;;4.80;3.60;;;;;;;8.77;70.29;102405.47;5033399;28;20156;-76
2022/05/01 00:29:17;;;;;;;5.33;3.50;;;;;;;8.81;70.44;102402.09;5032548;28;20112;-76
2022/05/01 00:31:42;;;;;;;5.03;3.60;;;;;;;8.82;70.41;102409.03;5032682;28;20033;-76
2022/05/01 00:36:51;;;;;;;4.72;3.22;;;;;;;8.86;70.12;102404.75;5032950;28;20436;-76
2022/05/01 00:39:16;;;;;;;4.87;3.43;;;;;;;8.87;70.29;102406.50;5033604;28;20030;-76
2022/05/01 00:41:43;;;;;;;4.47;3.13;;;;;;;8.85;70.66;102403.88;5033056;28;20385;-76
2022/05/01 00:44:08;;;;;;;;;;;;;;;8.85;71.60;102400.44;5032883;28;20065;-76
2022/05/01 00:46:51;;;;;;;3.93;3.00;;;;;;;8.79;72.08;102402.06;5033229;28;19917;-76
2022/05/01 00:49:19;;;;;;;8.85;5.28;;;;;;;8.70;72.25;102406.22;5033349;28;20381;-76
2022/05/01 00:51:50;;;;;;;9.55;5.45;;;;;;;8.62;73.13;102401.75;5031621;28;20089;-76
2022/05/01 00:54:17;;;;;;;11.20;6.07;;;;;;;8.56;73.05;102400.78;5033214;28;20057;-76
2022/05/01 00:56:49;;;;;;;11.32;6.32;;;;;;;8.48;73.37;102393.75;5032766;28;20079;-76
2022/05/01 00:59:15;;;;;;;10.35;5.60;;;;;;;8.47;72.23;102394.59;5032577;28;20025;-76
2022/05/01 01:01:45;;;;;;;9.60;5.27;;;;;;;8.50;71.73;102394.66;5032832;28;20072;-76
2022/05/01 01:04:11;;;;;;;7.13;4.53;;;;;;;8.54;71.53;102398.16;5033028;28;20136;-76
2022/05/01 01:06:37;;;;;;;5.40;3.80;;;;;;;8.56;71.47;102396.50;5032224;28;20075;-76
2022/05/01 01:09:04;;;;;;;5.43;3.83;;;;;;;8.62;71.21;102393.13;5032931;28;20025;-76
2022/05/01 01:11:29;;;;;;;5.07;3.60;;;;;;;8.64;71.18;102389.72;5031932;28;20037;-76
2022/05/01 01:13:55;;;;;;;5.07;3.40;;;;;;;8.65;70.61;102391.47;5032739;28;20377;-76
2022/05/01 01:16:21;;;;;;;5.15;3.55;;;;;;;8.68;71.15;102389.78;5032675;28;20061;-76
2022/05/01 01:18:47;;;;;;;4.13;3.15;;;;;;;8.69;70.80;102383.78;5031581;28;20056;-76
2022/05/01 01:21:12;;;;;;;5.37;3.30;;;;;;;8.68;71.98;102385.47;5032400;28;20067;-76
2022/05/01 01:23:39;;;;;;;4.53;3.30;;;;;;;8.65;71.78;102390.63;5031691;28;20136;-76
2022/05/01 01:26:04;;;;;;;;;;;;;;;8.62;71.23;102388.81;5032329;28;20485;-76
2022/05/01 01:28:36;;;;;;;5.03;3.23;;;;;;;8.62;71.24;102387.97;5032897;28;19909;-76
2022/05/01 01:33:51;;;;;;;4.87;3.30;;;;;;;8.61;71.01;102384.47;5031549;28;20048;-76
2022/05/01 01:36:20;;;;;;;4.97;3.15;;;;;;;8.63;71.01;102384.53;5032592;28;20473;-76
2022/05/01 01:38:46;;;;;;;4.63;3.35;;;;;;;8.62;70.99;102383.66;5032229;28;20033;-76
2022/05/01 01:41:14;;;;;;;4.80;3.23;;;;;;;8.63;70.84;102381.94;5031757;28;20382;-76
2022/05/01 01:43:42;;;;;;;4.65;3.17;;;;;;;8.64;71.06;102383.69;5032297;28;20114;-76
2022/05/01 01:46:07;;;;;;;4.22;3.05;;;;;;;8.63;71.02;102382.81;5032229;28;20026;-76
2022/05/01 01:48:32;;;;;;;4.83;3.20;;;;;;;8.60;71.22;102380.19;5031708;28;20057;-77
2022/05/01 01:51:00;;;;;;;5.03;3.17;;;;;;;8.59;70.31;102381.03;5032036;28;20465;-76
2022/05/01 01:53:30;;;;;;;4.63;3.20;;;;;;;8.59;71.36;102385.31;5032428;28;20470;-76
2022/05/01 01:55:57;;;;;;;7.28;4.55;;;;;;;8.50;73.59;102381.72;5031367;28;20029;-76
2022/05/01 01:58:23;;;;;;;8.13;5.03;;;;;;;8.43;73.46;102373.78;5032529;28;20021;-76
2022/05/01 02:00:48;;;;;;;6.97;4.30;;;;;;;8.38;73.16;102383.19;5031393;28;20086;-76
2022/05/01 02:03:14;;;;;;;6.32;4.10;;;;;;;8.36;72.01;102383.16;5032271;28;20382;-76
2022/05/01 02:05:39;;;;;;;6.93;4.37;;;;;;;8.37;71.72;102377.13;5032314;28;20022;-76
2022/05/01 02:08:08;;;;;;;5.90;3.73;;;;;;;8.37;71.59;102376.28;5031935;28;20458;-76
2022/05/01 02:10:34;;;;;;;6.03;3.70;;;;;;;8.39;71.40;102378.03;5032268;28;20038;-76
2022/05/01 02:13:02;;;;;;;5.90;3.80;;;;;;;8.39;71.35;102378.03;5031799;28;20028;-76
2022/05/01 02:15:32;;;;;;;5.30;3.40;;;;;;;8.40;71.52;102377.19;5031188;28;20026;-76
2022/05/01 02:17:58;;;;;;;5.50;3.63;;;;;;;8.38;71.49;102371.13;5031825;28;20642;-76
2022/05/01 02:20:24;;;;;;;4.80;3.60;;;;;;;8.38;71.46;102371.13;5032426;28;20636;-77
2022/05/01 02:22:50;;;;;;;5.38;3.47;;;;;;;8.38;71.58;102370.25;5031402;28;20346;-76
2022/05/01 02:25:15;;;;;;;4.55;3.30;;;;;;;8.37;71.72;102371.94;5032283;28;20029;-76
2022/05/01 02:27:40;;;;;;;4.50;3.20;;;;;;;8.38;71.49;102372.84;5032015;28;20091;-76
2022/05/01 02:30:08;;;;;;;5.57;3.73;;;;;;;8.36;71.41;102367.63;5031459;28;20034;-76
2022/05/01 02:32:36;;;;;;;4.65;3.20;;;;;;;8.37;71.31;102373.69;5031968;28;20041;-76
2022/05/01 02:35:02;;;;;;;5.53;3.67;;;;;;;8.34;71.01;102364.13;5032178;28;20060;-76
2022/05/01 02:37:28;;;;;;;5.55;3.38;;;;;;;8.34;71.37;102359.84;5031599;28;20088;-76
2022/05/01 02:39:53;;;;;;;5.73;3.63;;;;;;;8.31;71.50;102357.19;5031535;28;20033;-76
2022/05/01 02:42:19;;;;;;;6.23;3.90;;;;;;;8.33;71.46;102357.25;5032612;28;20052;-76
2022/05/01 02:44:44;;;;;;;6.40;3.67;;;;;;;8.31;71.58;102353.75;5034869;28;20030;-76
2022/05/01 02:47:09;;;;;;;6.53;3.97;;;;;;;8.31;71.49;102351.16;5035390;28;20363;-76
2022/05/01 02:49:35;;;;;;;4.93;3.67;;;;;;;8.29;71.51;102358.88;5035629;28;20116;-76
2022/05/01 02:52:00;;;;;;;6.37;4.00;;;;;;;8.30;71.55;102352.00;5034184;28;20056;-76
2022/05/01 02:54:27;;;;;;;6.77;4.10;;;;;;;8.27;71.61;102347.66;5035377;28;20038;-76
2022/05/01 02:56:53;;;;;;;6.47;4.15;;;;;;;8.28;71.49;102349.38;5033832;28;20044;-76
2022/05/01 02:59:18;;;;;;;8.60;4.50;;;;;;;8.29;71.57;102350.25;5035307;28;20101;-76
2022/05/01 03:01:44;;;;;;;6.43;4.10;;;;;;;8.29;71.55;102352.84;5034847;28;20044;-76
2022/05/01 03:04:09;;;;;;;6.93;4.30;;;;;;;8.27;71.70;102352.81;5034777;28;20034;-76
2022/05/01 03:06:35;;;;;;;6.70;4.10;;;;;;;8.27;71.58;102352.81;5035648;28;20083;-76
2022/05/01 03:09:00;;;;;;;5.90;4.10;;;;;;;8.25;71.59;102346.75;5035103;28;20139;-76
2022/05/01 03:11:26;;;;;;;6.22;3.85;;;;;;;8.25;71.68;102348.44;5034133;28;20311;-76
2022/05/01 03:13:51;;;;;;;5.88;3.80;;;;;;;8.24;71.69;102341.53;5034796;28;20474;-76
2022/05/01 03:16:16;;;;;;;6.27;3.90;;;;;;;8.22;71.43;102343.25;5034717;28;20036;-76
2022/05/01 03:24:09;;;;;;;6.00;3.80;;;;;;;8.16;71.81;102337.09;5035270;28;20174;-76
2022/05/01 03:26:34;;;;;;;5.63;3.60;;;;;;;8.16;71.38;102341.41;5034075;28;20053;-76
2022/05/01 03:29:00;;;;;;;4.95;3.53;;;;;;;8.13;71.79;102337.03;5034679;28;20083;-76
2022/05/01 03:31:27;;;;;;;6.00;3.97;;;;;;;8.12;71.83;102339.59;5034650;28;20038;-76
2022/05/01 03:33:52;;;;;;;;;;;;;;;8.09;71.97;102332.66;5034239;28;20098;-76
2022/05/01 03:36:17;;;;;;;6.47;3.87;;;;;;;8.06;72.03;102330.00;5034773;28;20334;-76
2022/05/01 03:38:43;;;;;;;6.10;4.00;;;;;;;8.05;72.19;102330.84;5034312;28;20476;-76
2022/05/01 03:41:14;;;;;;;6.63;3.90;;;;;;;8.01;71.88;102329.91;5033483;28;20030;-76
2022/05/01 03:43:39;;;;;;;5.65;3.88;;;;;;;7.99;71.90;102325.56;5034493;28;20032;-76
2022/05/01 03:46:05;;;;;;;6.70;3.97;;;;;;;7.97;72.17;102322.94;5034010;28;20452;-76
2022/05/01 03:48:30;;;;;;;5.67;3.70;;;;;;;7.94;72.39;102324.59;5034553;28;20036;-76
2022/05/01 03:50:56;;;;;;;6.40;4.07;;;;;;;7.86;73.59;102327.91;5033890;28;20049;-76
2022/05/01 03:53:22;;;;;;;6.43;4.00;;;;;;;7.82;72.82;102326.09;5032990;28;20026;-76
2022/05/01 03:55:48;;;;;;;5.80;3.80;;;;;;;7.82;72.83;102331.25;5033537;28;20667;-76
2022/05/01 03:58:14;;;;;;;6.00;3.87;;;;;;;7.81;72.58;102329.53;5034468;28;20033;-76
2022/05/01 04:00:44;;;;;;;6.90;3.93;;;;;;;7.81;72.48;102329.53;5033301;28;20143;-76
2022/05/01 04:03:10;;;;;;;6.78;3.88;;;;;;;7.82;72.47;102328.69;5033990;28;20474;-76
2022/05/01 04:05:36;;;;;;;6.25;3.85;;;;;;;7.80;72.71;102327.78;5034146;28;20057;-76
2022/05/01 04:08:04;;;;;;;6.33;3.97;;;;;;;7.77;72.69;102327.69;5033079;28;20469;-76
2022/05/01 04:10:29;;;;;;;7.18;3.90;;;;;;;7.76;72.80;102327.69;5033656;28;20036;-76
2022/05/01 04:12:55;;;;;;;6.93;4.13;;;;;;;7.73;72.50;102329.34;5033532;28;20030;-76
2022/05/01 04:15:22;;;;;;;8.03;4.30;;;;;;;7.70;72.48;102326.72;5033142;28;20021;-76
2022/05/01 04:17:47;;;;;;;6.88;4.00;;;;;;;7.71;72.73;102335.34;5033508;28;20027;-76
2022/05/01 04:20:16;;;;;;;5.63;3.80;;;;;;;7.67;72.79;102325.78;5033918;28;20112;-76
2022/05/01 04:22:46;;;;;;;5.40;3.60;;;;;;;7.63;72.84;102331.75;5032836;28;20057;-76
2022/05/01 04:25:19;;;;;;;5.60;3.50;;;;;;;7.59;72.84;102328.22;5034059;28;20025;-76
2022/05/01 04:27:48;;;;;;;6.35;4.05;;;;;;;7.58;72.99;102329.06;5033390;28;20033;-76
2022/05/01 04:30:15;;;;;;;7.18;3.72;;;;;;;7.55;72.94;102334.16;5032995;28;20450;-76
2022/05/01 04:32:58;;;;;;;5.72;4.00;;;;;;;7.53;72.80;102326.38;5033136;28;20485;-76
2022/05/01 04:35:26;;;;;;;7.55;4.30;;;;;;;7.53;72.92;102326.38;5032235;28;20501;-76
2022/05/01 04:37:53;;;;;;;6.78;4.20;;;;;;;7.52;72.97;102329.81;5033260;28;20080;-76
2022/05/01 04:40:18;;;;;;;;;;;;;;;7.51;72.95;102332.34;5034005;28;20029;-76
2022/05/01 04:42:44;;;;;;;7.90;4.43;;;;;;;7.49;73.17;102331.41;5032488;28;19924;-76
2022/05/01 04:45:13;;;;;;;6.82;4.22;;;;;;;7.45;73.05;102325.31;5033356;28;20025;-76
2022/05/01 04:47:38;;;;;;;10.13;5.10;;;;;;;7.42;76.07;102327.88;5033152;28;20030;-76
2022/05/01 04:50:04;;;;;;;9.87;5.07;;;;;;;7.34;75.21;102321.63;5032512;28;20021;-76
2022/05/01 04:52:30;;;;;;;8.20;4.63;;;;;;;7.29;74.16;102329.28;5033108;28;20056;-76
2022/05/01 04:54:58;;;;;;;9.27;5.00;;;;;;;7.25;75.17;102333.50;5033058;28;20026;-76
2022/05/01 04:57:23;;;;;;;10.95;5.95;;;;;;;7.20;76.51;102332.56;5032593;28;20029;-76
2022/05/01 04:59:48;;;;;;;10.27;5.83;;;;;;;7.15;75.03;102336.72;5032430;28;20040;-76
2022/05/01 05:02:17;;;;;;;10.70;5.37;;;;;;;7.18;74.55;102341.97;5033106;28;20440;-76
2022/05/01 05:04:42;;;;;;;8.00;4.88;;;;;;;7.23;74.51;102342.06;5031051;28;20038;-76
2022/05/01 05:07:07;;;;;;;12.07;5.33;;;;;;;7.24;74.16;102342.09;5033002;28;20072;-76
2022/05/01 05:12:17;;;;;;;13.82;6.60;;;;;;;7.23;75.37;102344.66;5032332;28;20092;-76
2022/05/01 05:14:42;;;;;;;11.07;5.60;;;;;;;7.21;75.36;102344.59;5032649;28;20429;-76
2022/05/01 05:17:09;;;;;;;10.00;5.30;;;;;;;7.22;75.64;102348.06;5032854;28;20112;-76
2022/05/01 05:19:35;;;;;;;12.50;6.63;;;;;;;7.18;76.82;102347.13;5031960;28;20025;-76
2022/05/01 05:22:01;;;;;;;14.57;7.07;;;;;;;7.13;75.86;102340.97;5032589;28;20029;-76
2022/05/01 05:24:26;;;;;;;12.10;6.28;;;;;;;7.13;75.59;102346.13;5032981;28;20043;-77
2022/05/01 05:26:52;;;;;;;10.95;6.03;;;;;;;7.10;77.63;102351.22;5031827;28;20032;-76
2022/05/01 05:29:17;;;;;;;10.65;5.78;;;;;;;7.10;75.89;102352.13;5032342;28;20124;-76
2022/05/01 05:31:42;;;;;;;9.90;5.30;;;;;;;7.13;75.10;102361.63;5031355;28;20083;-76
2022/05/01 05:34:08;;;;;;;8.50;4.70;;;;;;;7.20;75.32;102358.38;5032870;28;20090;-76
2022/05/01 05:36:33;;;;;;;7.87;4.60;;;;;;;7.25;75.18;102361.91;5032831;28;20406;-76
2022/05/01 05:38:59;;;;;;;7.63;4.50;;;;;;;7.33;74.79;102358.63;5031681;28;20466;-76
2022/05/01 05:41:24;;;;;;;6.80;4.00;;;;;;;7.40;74.60;102368.28;5032599;28;20029;-76
2022/05/01 05:43:49;;;;;;;6.10;3.87;;;;;;;7.46;76.59;102359.78;5031824;28;20478;-76
2022/05/01 05:46:14;;;;;;;13.88;6.80;;;;;;;7.45;76.58;102365.78;5031390;28;20029;-76
2022/05/01 05:48:40;;;;;;;12.68;6.57;;;;;;;7.44;77.73;102366.63;5032300;28;20040;-76
2022/05/01 05:51:05;;;;;;;11.85;5.95;;;;;;;7.45;76.14;102368.38;5032391;28;20505;-76
2022/05/01 05:53:30;;;;;;;15.02;8.10;;;;;;;7.47;78.42;102364.97;5031767;28;20025;-76
2022/05/01 05:55:56;;;;;;;19.20;10.50;;;;;;;7.43;78.48;102358.00;5032194;28;20034;-76
2022/05/01 05:58:23;;;;;;;;;;;;;;;7.32;78.96;102373.28;5032850;28;20049;-76
2022/05/01 06:00:48;;;;;;;22.30;12.27;;;;;;;7.28;77.95;102365.41;5030935;28;19917;-77
2022/05/01 06:03:13;;;;;;;19.13;10.10;;;;;;;7.36;77.16;102377.69;5032295;28;20038;-77
2022/05/01 06:05:39;;;;;;;17.45;9.05;;;;;;;7.47;77.27;102371.88;5031167;28;20037;-77
2022/05/01 06:08:13;;;;;;;17.03;8.10;;;;;;;7.51;78.14;102369.38;5031239;28;20038;-76
2022/05/01 06:10:38;;;;;;;17.27;8.90;;;;;;;7.54;77.84;102368.56;5031073;28;20036;-75
2022/05/01 06:13:04;;;;;;;17.53;8.57;;;;;;;7.60;77.94;102373.00;5032067;28;20033;-75
2022/05/01 06:15:30;;;;;;;18.10;9.43;;;;;;;7.66;78.06;102375.72;5031267;28;20040;-75
2022/05/01 06:17:55;;;;;;;20.35;11.27;;;;;;;7.66;78.94;102379.19;5035322;28;20401;-75
2022/05/01 06:20:20;;;;;;;17.88;9.63;;;;;;;7.70;78.67;102380.13;5036246;28;20033;-75
2022/05/01 06:22:49;;;;;;;19.87;11.20;;;;;;;7.72;79.02;102381.03;5035073;28;20052;-75
2022/05/01 06:25:15;;;;;;;18.17;9.95;;;;;;;7.78;78.41;102375.13;5035565;28;20025;-75
2022/05/01 06:27:40;;;;;;;17.73;9.30;;;;;;;7.84;77.44;102381.28;5035549;28;20090;-75
2022/05/01 06:30:06;;;;;;;21.03;12.30;;;;;;;7.86;79.26;102374.44;5035203;28;20025;-75
2022/05/01 06:32:32;;;;;;;22.07;12.50;;;;;;;7.91;78.58;102381.41;5035845;28;20029;-76
2022/05/01 06:34:58;;;;;;;21.45;12.95;;;;;;;7.92;78.40;102385.72;5034954;28;20041;-76
2022/05/01 06:37:23;;;;;;;21.37;12.43;;;;;;;7.96;78.11;102382.38;5035918;28;20025;-77
2022/05/01 06:39:50;;;;;;;21.20;13.23;;;;;;;8.01;78.86;102380.75;5034933;28;20393;-76
2022/05/01 06:42:15;;;;;;;22.08;12.82;;;;;;;8.05;77.72;102385.16;5034312;28;20136;-76
2022/05/01 06:44:40;;;;;;;20.87;11.57;;;;;;;8.17;78.05;102376.75;5034552;28;20084;-76
2022/05/01 06:47:08;;;;;;;17.90;9.67;;;;;;;8.29;76.76;102387.31;5035623;28;20472;-77
2022/05/01 06:49:33;;;;;;;17.75;9.63;;;;;;;8.41;77.15;102381.53;5031957;28;20022;-77
2022/05/01 06:51:59;;;;;;;19.43;10.93;;;;;;;8.52;77.15;102388.66;5032830;28;20413;-78
2022/05/01 06:54:24;;;;;;;22.10;13.23;;;;;;;8.51;77.40;102385.16;5034511;28;20041;-77
2022/05/01 06:56:49;;;;;;;19.70;11.47;;;;;;;8.56;76.23;102390.41;5034284;28;20038;-77
2022/05/01 06:59:16;;;;;;;19.38;10.57;;;;;;;8.67;76.39;102390.63;5035236;28;20029;-77
2022/05/01 07:01:47;;;;;;;17.95;9.93;;;;;;;8.74;76.18;102387.28;5034678;28;20068;-77
2022/05/01 07:04:13;;;;;;;19.30;10.65;;;;;;;8.83;76.06;102378.81;5034535;28;20033;-79
2022/05/01 07:06:38;;;;;;;21.10;11.50;;;;;;;8.86;75.62;102379.72;5035060;28;20026;-77
2022/05/01 07:09:03;;;;;;;19.50;10.70;;;;;;;8.94;75.64;102372.09;5034754;28;20116;-77
2022/05/01 07:11:29;;;;;;;16.90;8.87;;;;;;;9.06;75.14;102377.47;5034103;28;20061;-77
2022/05/01 07:13:54;;;;;;;19.77;10.37;;;;;;;9.17;75.14;102380.25;5043550;28;20481;-77
2022/05/01 07:16:20;;;;;;;21.65;11.98;;;;;;;9.25;74.93;102381.22;5054976;28;20025;-77
2022/05/01 07:18:46;;;;;;;23.33;14.43;;;;;;;9.18;74.20;102384.53;5053635;28;20023;-77
2022/05/01 07:21:11;;;;;;;22.83;13.00;;;;;;;9.22;74.44;102378.56;5034690;28;20038;-77
2022/05/01 07:23:37;;;;;;;20.67;12.47;;;;;;;9.31;74.04;102380.44;5033229;28;20030;-77
2022/05/01 07:26:02;;;;;;;20.13;11.87;;;;;;;9.35;74.03;102382.22;5033240;28;20061;-77
2022/05/01 07:28:27;;;;;;;20.57;12.27;;;;;;;9.47;73.12;102376.34;5031959;28;20064;-77
2022/05/01 07:30:53;;;;;;;21.00;12.33;;;;;;;9.53;72.81;102372.97;5034022;28;20536;-77
2022/05/01 07:33:18;;;;;;;22.03;13.03;;;;;;;9.54;72.92;102378.16;5033772;28;20036;-77
2022/05/01 07:35:43;;;;;;;21.47;13.10;;;;;;;9.57;71.75;102375.63;5034165;28;20087;-76
2022/05/01 07:38:08;;;;;;;20.40;11.57;;;;;;;9.64;71.90;102379.16;5034066;28;20026;-77
2022/05/01 07:40:33;;;;;;;18.13;9.93;;;;;;;9.78;72.13;102383.66;5034052;28;20068;-77
2022/05/01 07:43:02;;;;;;;19.97;11.23;;;;;;;9.88;70.74;102380.34;5033803;28;20037;-77
2022/05/01 07:45:27;;;;;;;21.90;12.02;;;;;;;9.89;71.00;102384.69;5033541;28;20060;-77
2022/05/01 07:47:52;;;;;;;22.07;13.20;;;;;;;9.81;70.50;102387.16;5033931;28;20069;-77
2022/05/01 07:50:18;;;;;;;20.67;11.33;;;;;;;9.84;71.48;102394.09;5033851;28;20030;-77
2022/05/01 07:52:43;;;;;;;18.43;10.33;;;;;;;9.94;71.76;102383.00;5032861;28;20409;-77
2022/05/01 07:55:09;;;;;;;19.60;11.20;;;;;;;10.03;71.49;102388.28;5034076;28;20468;-77
2022/05/01 07:57:34;;;;;;;17.57;9.33;;;;;;;10.18;71.57;102385.03;5033880;28;20120;-77
2022/05/01 07:59:59;;;;;;;21.40;12.30;;;;;;;10.30;70.23;102384.28;5033115;28;20028;-77
2022/05/01 08:02:34;;;;;;;19.20;10.67;;;;;;;10.42;71.37;102393.94;5033863;28;20112;-77
2022/05/01 08:04:59;;;;;;;17.20;9.13;;;;;;;10.62;71.42;102386.34;5033651;28;20105;-77
2022/05/01 08:07:25;;;;;;;16.73;8.77;;;;;;;10.78;70.90;102387.34;5033107;28;20482;-77
2022/05/01 08:09:50;;;;;;;14.10;7.47;;;;;;;10.97;70.75;102388.38;5033612;28;20070;-77
2022/05/01 08:12:15;;;;;;;12.23;6.80;;;;;;;11.21;70.21;102385.94;5033589;28;20083;-78
2022/05/01 08:14:41;;;;;;;19.33;10.17;;;;;;;11.41;68.25;102383.47;5032228;28;20107;-77
2022/05/01 08:17:07;;;;;;;20.23;11.68;;;;;;;11.44;64.27;102375.69;5033136;28;20432;-78
2022/05/01 08:22:16;;;;;;;21.80;13.38;;;;;;;11.17;65.90;102379.00;5031061;28;20040;-78
2022/05/01 08:24:41;;;;;;;22.90;13.00;;;;;;;11.10;65.15;102388.47;5032441;28;20397;-77
2022/05/01 08:27:07;;;;;;;20.73;11.80;;;;;;;11.17;65.82;102385.03;5032097;28;20394;-78
2022/05/01 08:29:39;;;;;;;19.47;10.97;;;;;;;11.34;64.54;102379.09;5032862;28;20033;-78
2022/05/01 08:32:06;;;;;;;19.42;10.15;;;;;;;11.44;65.38;102370.50;5033063;28;20478;-78
2022/05/01 08:34:31;;;;;;;;;;;;;;;11.57;63.87;102376.63;5032144;28;20108;-78
2022/05/01 08:36:56;;;;;;;18.67;10.70;;;;;;;11.57;64.73;102376.63;5032896;28;20910;-78
2022/05/01 08:39:25;;;;;;;17.93;9.50;;;;;;;11.69;64.04;102378.44;5031585;28;20032;-77
2022/05/01 08:41:52;;;;;;;14.93;8.27;;;;;;;11.91;64.56;102366.38;5029129;28;20156;-77
2022/05/01 08:44:32;;;;;;;15.25;7.95;;;;;;;12.20;63.33;102373.44;5032776;28;20032;-77
2022/05/01 08:47:30;;;;;;;14.40;8.18;;;;;;;12.49;62.18;102373.50;5032376;28;20048;-77
2022/05/01 08:49:58;;;;;;;18.38;8.95;;;;;;;12.55;59.24;102370.03;5029951;28;20033;-77
2022/05/01 08:52:24;;;;;;;16.45;8.50;;;;;;;12.66;55.11;102377.84;5031010;28;20068;-77
2022/05/01 08:54:50;;;;;;;12.35;6.68;;;;;;;12.66;56.75;102375.22;5028653;28;20030;-77
2022/05/01 08:57:19;;;;;;;11.20;6.30;;;;;;;12.79;59.30;102366.56;5031054;28;20422;-77
2022/05/01 08:59:46;;;;;;;11.43;5.85;;;;;;;13.02;55.57;102362.19;5031621;28;20049;-78
2022/05/01 09:02:11;;;;;;;14.45;7.00;;;;;;;13.08;51.09;102365.66;5031588;28;20032;-77
2022/05/01 09:04:37;;;;;;;9.27;5.73;;;;;;;13.18;54.06;102358.69;5024031;28;20033;-77
2022/05/01 09:07:02;;;;;;;8.73;4.63;;;;;;;13.41;52.45;102361.25;5032657;28;20025;-77
2022/05/01 09:09:31;;;;;;;9.30;5.37;;;;;;;13.58;50.83;102352.53;5032691;28;20103;-78
2022/05/01 09:14:50;;;;;;;9.35;5.40;;;;;;;14.06;52.82;102360.13;5029550;28;20056;-77
2022/05/01 09:17:20;;;;;;;7.63;4.60;;;;;;;14.21;51.20;102361.78;5029791;28;20021;-78
2022/05/01 09:19:48;;;;;;;8.80;4.75;;;;;;;14.39;46.21;102358.19;5028308;28;20021;-77
2022/05/01 09:22:18;;;;;;;6.88;4.45;;;;;;;14.49;49.69;102367.69;5028199;28;20100;-77
2022/05/01 09:24:44;;;;;;;8.65;4.60;;;;;;;14.54;51.03;102362.41;5029550;28;20033;-79
2022/05/01 09:27:29;;;;;;;6.77;4.10;;;;;;;14.55;50.69;102360.69;5016068;28;20434;-75
2022/05/01 09:30:31;;;;;;;3.92;3.20;;;;;;;14.73;52.28;102363.19;5012591;28;20032;-78
2022/05/01 09:32:58;;;;;;;3.72;2.80;;;;;;;15.03;50.13;102357.69;5021511;28;20037;-78
2022/05/01 09:35:29;;;;;;;6.43;3.92;;;;;;;15.17;40.93;102355.81;5031863;28;20502;-77
2022/05/01 09:38:15;;;;;;;5.95;3.80;;;;;;;15.11;49.74;102363.72;5031509;28;20029;-78
2022/05/01 09:40:42;;;;;;;8.50;4.72;;;;;;;15.21;43.68;102359.25;5032296;28;20044;-78
2022/05/01 09:43:07;;;;;;;;;;;;;;;15.29;43.15;102360.03;5031566;28;20493;-78
2022/05/01 09:45:33;;;;;;;10.15;5.25;;;;;;;15.22;44.54;102363.63;5035892;28;19925;-78
2022/05/01 09:47:59;;;;;;;7.43;4.67;;;;;;;15.27;44.81;102357.44;5037848;28;20087;-78
2022/05/01 09:50:45;;;;;;;8.50;4.80;;;;;;;15.27;45.15;102364.41;5031039;28;20460;-78
2022/05/01 09:53:13;;;;;;;6.85;3.90;;;;;;;15.32;44.34;102356.50;5035474;28;20034;-78
2022/05/01 09:55:38;;;;;;;5.07;3.72;;;;;;;15.33;47.90;102350.41;5035016;28;20032;-78
2022/05/01 09:58:14;;;;;;;3.40;2.93;;;;;;;15.42;48.89;102355.56;5036268;28;20388;-78
2022/05/01 10:00:46;;;;;;;5.70;3.30;;;;;;;15.46;47.42;102356.38;5035319;28;20105;-78
2022/05/01 10:03:21;;;;;;;5.30;3.30;;;;;;;15.35;48.23;102351.25;5034532;28;20036;-78
2022/05/01 10:05:52;;;;;;;4.65;3.08;;;;;;;15.25;48.27;102361.81;5035102;28;20064;-78
2022/05/01 10:08:18;;;;;;;4.65;3.30;;;;;;;15.14;46.64;102353.22;5034412;28;20104;-78
2022/05/01 10:10:49;;;;;;;8.57;4.60;;;;;;;14.90;46.70;102360.41;5035360;28;20025;-78
2022/05/01 10:13:18;;;;;;;5.60;3.75;;;;;;;14.80;42.96;102361.38;5034028;28;20064;-78
2022/05/01 10:15:44;;;;;;;9.20;4.80;;;;;;;14.56;45.41;102355.44;5035440;28;20037;-78
2022/05/01 10:18:11;;;;;;;6.18;3.92;;;;;;;14.55;47.82;102351.09;5035031;28;20437;-78
2022/05/01 10:20:37;;;;;;;4.35;3.10;;;;;;;14.68;47.41;102354.53;5034689;28;20525;-78
2022/05/01 10:23:03;;;;;;;4.33;2.97;;;;;;;14.86;48.89;102352.63;5036022;28;20160;-78
2022/05/01 10:25:33;;;;;;;2.83;2.50;;;;;;;15.05;47.86;102345.47;5035931;28;20033;-78
2022/05/01 10:28:21;;;;;;;3.55;2.30;;;;;;;15.19;48.39;102338.38;5034975;28;20045;-78
2022/05/01 10:34:23;;;;;;;5.78;3.70;;;;;;;15.41;45.69;102340.75;5035514;28;20036;-78
2022/05/01 10:37:21;;;;;;;10.30;5.22;;;;;;;15.20;44.95;102332.22;5035923;28;20040;-78
2022/05/01 10:39:49;;;;;;;4.63;3.45;;;;;;;15.43;43.01;102336.31;5034474;28;20461;-78
2022/05/01 10:42:38;;;;;;;7.03;4.10;;;;;;;15.48;45.99;102334.53;5034620;28;20025;-78
2022/05/01 10:45:24;;;;;;;4.32;3.10;;;;;;;15.65;46.90;102336.94;5034882;28;20025;-78
2022/05/01 10:47:51;;;;;;;4.35;3.08;;;;;;;15.74;45.84;102334.19;5035144;28;20120;-78
2022/05/01 10:50:27;;;;;;;3.47;2.70;;;;;;;15.88;45.85;102330.56;5033983;28;20025;-77
2022/05/01 10:53:04;;;;;;;4.68;3.10;;;;;;;16.07;46.26;102325.94;5034988;28;20050;-78
2022/05/01 10:55:48;;;;;;;4.00;3.25;;;;;;;16.09;42.74;102321.56;5034276;28;20022;-78
2022/05/01 10:58:19;;;;;;;6.35;4.00;;;;;;;15.94;43.71;102321.75;5035030;28;20037;-78
2022/05/01 11:00:46;;;;;;;5.95;3.78;;;;;;;15.85;44.35;102313.16;5035551;28;20492;-78
2022/05/01 11:03:28;;;;;;;;;;;;;;;15.73;40.11;102314.16;5033510;28;20021;-78
2022/05/01 11:06:08;;;;;;;8.65;5.07;;;;;;;15.38;40.40;102319.84;5034752;28;19921;-78
2022/05/01 11:08:38;;;;;;;6.35;4.20;;;;;;;15.31;44.00;102313.81;5035250;28;20492;-77
2022/05/01 11:11:11;;;;;;;5.88;3.70;;;;;;;15.46;44.48;102304.06;5034106;28;20052;-77
2022/05/01 11:13:38;;;;;;;3.72;3.08;;;;;;;15.63;45.47;102304.69;5035215;28;20041;-77
2022/05/01 11:16:43;;;;;;;5.22;3.42;;;;;;;15.85;44.57;102299.19;5034626;28;20120;-78
2022/05/01 11:19:09;;;;;;;6.05;4.18;;;;;;;16.10;43.19;102299.69;5034667;28;20041;-78
2022/05/01 11:21:37;;;;;;;6.27;4.10;;;;;;;16.14;43.55;102301.38;5034836;28;20025;-78
2022/05/01 11:24:05;;;;;;;7.03;4.13;;;;;;;16.26;43.79;102300.34;5034257;28;20066;-78
2022/05/01 11:26:32;;;;;;;4.97;3.80;;;;;;;16.36;42.87;102290.56;5035025;28;20466;-78
2022/05/01 11:29:10;;;;;;;4.80;3.20;;;;;;;16.45;43.81;102289.56;5034680;28;20041;-78
2022/05/01 11:31:38;;;;;;;4.53;3.22;;;;;;;16.59;42.42;102287.56;5033908;28;20028;-78
2022/05/01 11:34:24;;;;;;;5.28;3.72;;;;;;;16.59;38.91;102284.94;5034048;28;20031;-78
2022/05/01 11:37:09;;;;;;;;;;;;;;;16.28;39.66;102271.50;5034685;28;20485;-78
2022/05/01 11:40:14;;;;;;;7.57;4.50;;;;;;;16.13;40.67;102281.31;5030494;28;19913;-77
2022/05/01 11:42:40;;;;;;;7.88;4.88;;;;;;;15.97;42.15;102272.84;5032700;28;20034;-78
2022/05/01 11:45:08;;;;;;;5.45;3.95;;;;;;;16.01;43.25;102274.53;5033270;28;20473;-78
2022/05/01 11:47:34;;;;;;;8.30;4.60;;;;;;;16.05;42.12;102277.97;5034460;28;20025;-78
2022/05/01 11:50:00;;;;;;;11.82;6.57;;;;;;;15.62;40.73;102273.31;5034015;28;20022;-78
2022/05/01 11:52:25;;;;;;;10.17;5.83;;;;;;;15.41;40.10;102273.56;5031520;28;20056;-78
2022/05/01 11:54:58;;;;;;;10.63;6.00;;;;;;;15.17;40.94;102266.91;5032870;28;20064;-78